Airport View

Enter AWOS ICAO identifier for current METAR.

ex. KFNL

KFHB 191815Z AUTO 25010KT 10SM BKN025 OVC039 22/19 A3002 RMK AO2 T02250186

19 Jan 2020 18:31

Frequency: 118.075

Phone: 904-277-7323

Other Area AWOS: KNRB - KJAX - KCRG - KNIP

TAF KNRB 1915/2015 23010KT 9999 SCT050 QNH2997INS BECMG 1918/1920 28012KT 9999 VCSH BKN050 QNH2995INS TEMPO 1920/2002 8000 -SHRA BKN010 OVC020 BECMG 2004/2006 32012KT 9999 NSW SCT050 BKN250 QNH3009INS AUTOMATED SENSOR METWATCH 1915 TIL 2110 T21/1919Z T05/2012Z FN00205